Terminal Aerodrome Forecast
Issued by NWS Omaha/Valley, NE

Home | Current Version | Previous Version | Text Only | Print | Product List | Glossary On
Versions: 1 2 3 4 5 6 7 8 9 10 11 12 13 14 15 16 17 18 19 20 21 22 23 24 25 26 27 28 29 30 31 32 33 34 35 36
000
FTUS43 KOAX 011244 AAA
TAFLNK
TAF AMD
KLNK 011244Z 0113/0212 31006KT P6SM SCT012 SCT080
     FM011500 33008KT P6SM SCT030 SCT100
      TEMPO 0115/0118 BKN030
     FM011900 36009KT P6SM SCT040 BKN120
     FM020100 VRB03KT P6SM BKN100=

USA.gov is the U.S. government's official web portal to all federal, state and local government web resources and services.